createdAt,value
2019-05-22T00:02:35.039Z,75.77
2019-05-22T00:05:19.014Z,75.50
2019-05-22T00:07:48.885Z,75.82
2019-05-22T00:10:26.432Z,75.95
2019-05-22T00:12:58.943Z,76.57
2019-05-22T00:15:30.397Z,76.53
2019-05-22T00:18:02.268Z,77.01
2019-05-22T00:20:31.954Z,77.22
2019-05-22T00:23:05.767Z,77.27
2019-05-22T00:25:37.930Z,78.30
2019-05-22T00:28:09.130Z,79.05
2019-05-22T00:30:39.978Z,79.69
2019-05-22T00:33:09.808Z,80.61
2019-05-22T00:35:39.991Z,81.11
2019-05-22T00:38:09.986Z,81.32
2019-05-22T00:40:47.749Z,82.34
2019-05-22T00:43:18.696Z,82.30
2019-05-22T00:45:50.763Z,82.79
2019-05-22T00:48:23.923Z,83.13
2019-05-22T00:51:10.286Z,83.83
2019-05-22T00:54:01.350Z,84.34
2019-05-22T00:56:45.321Z,84.88
2019-05-22T00:59:27.969Z,84.96
2019-05-22T01:02:02.200Z,84.67
2019-05-22T01:04:37.927Z,84.50
2019-05-22T01:07:17.922Z,84.55
2019-05-22T01:09:49.294Z,84.44
2019-05-22T01:12:26.580Z,83.91
2019-05-22T01:14:57.822Z,84.29
2019-05-22T01:17:30.153Z,84.20
2019-05-22T01:20:01.453Z,83.50
2019-05-22T01:22:32.493Z,83.61
2019-05-22T01:25:03.226Z,84.25
2019-05-22T01:27:32.818Z,84.28
2019-05-22T01:30:03.876Z,85.01
2019-05-22T01:32:43.090Z,83.95
2019-05-22T01:35:14.027Z,84.31
2019-05-22T01:37:45.096Z,84.79
2019-05-22T01:40:23.624Z,85.21
2019-05-22T01:42:56.167Z,84.88
2019-05-22T01:45:26.621Z,84.84
2019-05-22T01:48:05.742Z,84.95
2019-05-22T01:50:51.265Z,85.37
2019-05-22T01:53:24.087Z,85.71
2019-05-22T01:55:59.576Z,86.11
2019-05-22T01:58:31.544Z,86.99
2019-05-22T02:01:03.335Z,87.23
2019-05-22T02:03:34.421Z,87.54
2019-05-22T02:06:06.249Z,87.61
2019-05-22T02:08:41.041Z,87.45
2019-05-22T02:11:13.927Z,87.85
2019-05-22T02:13:48.731Z,88.14
2019-05-22T02:16:18.753Z,88.68
2019-05-22T02:18:50.779Z,88.11
2019-05-22T02:21:21.939Z,88.52
2019-05-22T02:23:52.674Z,88.64
2019-05-22T02:26:22.200Z,88.25
2019-05-22T02:28:55.029Z,88.62
2019-05-22T02:31:28.805Z,88.55
2019-05-22T02:34:03.116Z,88.58
2019-05-22T02:36:34.919Z,88.57
2019-05-22T02:39:10.481Z,88.26
2019-05-22T02:41:46.613Z,88.49
2019-05-22T02:44:16.479Z,88.62
2019-05-22T02:46:46.308Z,88.69
2019-05-22T02:49:17.499Z,88.58
2019-05-22T02:51:48.705Z,88.60
2019-05-22T02:54:18.423Z,88.86
2019-05-22T02:56:48.139Z,89.47
2019-05-22T02:59:18.114Z,89.97
2019-05-22T03:01:48.382Z,89.47
2019-05-22T03:04:19.615Z,89.55
2019-05-22T03:06:51.262Z,89.15
2019-05-22T03:09:28.937Z,89.17
2019-05-22T03:12:03.926Z,89.49
2019-05-22T03:14:35.110Z,89.62
2019-05-22T03:17:07.769Z,89.74
2019-05-22T03:19:45.435Z,89.65
2019-05-22T03:22:28.499Z,89.48
2019-05-22T03:25:02.073Z,89.85
2019-05-22T03:27:44.071Z,89.96
2019-05-22T03:30:21.498Z,89.98
2019-05-22T03:32:52.185Z,90.59
2019-05-22T03:35:23.948Z,90.14
2019-05-22T03:37:53.876Z,89.80
2019-05-22T03:40:25.467Z,89.88
2019-05-22T03:42:55.358Z,89.79
2019-05-22T03:45:25.434Z,89.58
2019-05-22T03:47:57.021Z,89.97
2019-05-22T03:50:28.626Z,89.88
2019-05-22T03:53:00.676Z,89.29
2019-05-22T03:55:30.054Z,88.53
2019-05-22T03:57:59.709Z,88.16
2019-05-22T04:00:31.044Z,88.52
2019-05-22T04:03:01.324Z,88.06
2019-05-22T04:05:30.831Z,88.20
2019-05-22T04:08:03.876Z,88.07
2019-05-22T04:10:41.173Z,88.30
2019-05-22T04:13:10.809Z,88.21
2019-05-22T04:15:42.236Z,88.23
2019-05-22T04:18:16.536Z,87.63
2019-05-22T04:20:46.260Z,87.39
2019-05-22T04:23:15.646Z,87.73
2019-05-22T04:25:45.430Z,88.55
2019-05-22T04:28:15.259Z,88.73
2019-05-22T04:30:46.556Z,87.98
2019-05-22T04:33:16.093Z,87.54
2019-05-22T04:35:45.938Z,87.48
2019-05-22T04:38:17.228Z,87.15
2019-05-22T04:40:58.060Z,86.67
2019-05-22T04:43:32.653Z,85.94
2019-05-22T04:46:04.566Z,85.63
2019-05-22T04:48:36.442Z,85.72
2019-05-22T04:51:27.301Z,85.38
2019-05-22T04:53:57.395Z,84.03
2019-05-22T04:56:28.508Z,83.86
2019-05-22T04:59:00.989Z,83.37
2019-05-22T05:01:31.012Z,83.24
2019-05-22T05:04:01.519Z,82.75
2019-05-22T05:06:33.354Z,82.43
2019-05-22T05:09:10.583Z,82.62
2019-05-22T05:11:40.475Z,82.19
2019-05-22T05:14:10.344Z,82.27
2019-05-22T05:16:39.963Z,82.29
2019-05-22T05:19:09.752Z,81.03
2019-05-22T05:21:40.399Z,79.50
2019-05-22T05:24:09.825Z,80.97
2019-05-22T05:26:39.313Z,80.20
2019-05-22T05:29:27.885Z,79.98
2019-05-22T05:31:59.017Z,78.27
2019-05-22T05:34:48.627Z,78.00
2019-05-22T05:37:20.716Z,77.31
2019-05-22T05:40:39.442Z,76.08
2019-05-22T05:43:15.377Z,75.33
2019-05-22T05:45:47.549Z,75.49
2019-05-22T05:48:20.908Z,74.86
2019-05-22T05:51:33.319Z,73.78
2019-05-22T05:54:08.748Z,74.39
2019-05-22T05:56:40.832Z,74.56
2019-05-22T05:59:14.276Z,73.79
2019-05-22T06:01:53.506Z,73.30
2019-05-22T06:04:39.140Z,72.10
2019-05-22T06:07:25.349Z,71.05
2019-05-22T06:10:25.393Z,71.27
2019-05-22T06:12:54.819Z,70.78
2019-05-22T06:15:45.947Z,69.76
2019-05-22T06:18:48.512Z,69.76
2019-05-22T06:21:19.254Z,69.79
2019-05-22T06:24:25.525Z,69.66
2019-05-22T06:27:03.067Z,68.35
2019-05-22T06:29:42.770Z,67.98
2019-05-22T06:32:55.660Z,66.88
2019-05-22T06:35:26.893Z,66.51
2019-05-22T06:38:35.168Z,64.48
2019-05-22T06:41:07.142Z,63.09
2019-05-22T06:44:16.893Z,64.12
2019-05-22T06:46:48.024Z,63.70
2019-05-22T06:49:44.918Z,61.88
2019-05-22T06:52:15.249Z,63.47
2019-05-22T06:54:45.063Z,63.83
2019-05-22T06:57:16.007Z,62.56
2019-05-22T06:59:46.930Z,62.08
2019-05-22T07:02:19.454Z,62.42
2019-05-22T07:04:49.840Z,63.96
2019-05-22T07:07:20.028Z,64.87
2019-05-22T07:09:50.676Z,65.12
2019-05-22T07:12:23.260Z,64.93
2019-05-22T07:16:02.199Z,64.84
2019-05-22T07:18:32.009Z,63.51
2019-05-22T07:21:01.982Z,64.35
2019-05-22T07:23:33.013Z,65.75
2019-05-22T07:26:03.609Z,65.11
2019-05-22T07:28:33.616Z,65.43
2019-05-22T07:31:04.436Z,65.03
2019-05-22T07:33:35.312Z,65.31
2019-05-22T07:36:10.045Z,65.47
2019-05-22T07:38:36.418Z,63.68
2019-05-22T07:41:07.766Z,63.30
2019-05-22T07:43:41.195Z,63.57
2019-05-22T07:46:08.713Z,63.76
2019-05-22T07:48:38.659Z,62.99
2019-05-22T07:51:08.795Z,62.48
2019-05-22T07:53:38.108Z,62.47
2019-05-22T07:56:11.550Z,60.91
2019-05-22T07:58:41.550Z,60.86
2019-05-22T08:01:11.004Z,61.06
2019-05-22T08:03:43.734Z,60.59
2019-05-22T08:06:13.825Z,60.90
2019-05-22T08:08:45.410Z,59.13
2019-05-22T08:11:16.088Z,58.30
2019-05-22T08:13:46.319Z,58.57
2019-05-22T08:16:17.014Z,58.35
2019-05-22T08:18:46.611Z,57.00
2019-05-22T08:21:16.034Z,56.78
2019-05-22T08:23:46.348Z,57.24
2019-05-22T08:26:19.319Z,57.09
2019-05-22T08:28:49.378Z,55.73
2019-05-22T08:31:20.700Z,54.74
2019-05-22T08:33:50.254Z,54.75
2019-05-22T08:36:19.645Z,55.76
2019-05-22T08:38:50.162Z,54.83
2019-05-22T08:41:24.930Z,55.37
2019-05-22T08:44:14.716Z,54.75
2019-05-22T08:46:25.970Z,52.92
2019-05-22T08:48:56.368Z,53.53
2019-05-22T08:51:25.885Z,53.31
2019-05-22T08:53:55.609Z,53.51
2019-05-22T08:56:27.040Z,54.52
2019-05-22T08:58:56.405Z,54.62
2019-05-22T09:01:26.036Z,53.18
2019-05-22T09:03:56.088Z,52.68
2019-05-22T09:06:25.482Z,53.27
2019-05-22T09:08:54.929Z,52.16
2019-05-22T09:11:24.320Z,52.75
2019-05-22T09:13:53.703Z,52.03
2019-05-22T09:16:23.959Z,50.41
2019-05-22T09:18:54.379Z,50.52
2019-05-22T09:21:24.266Z,51.67
2019-05-22T09:23:55.173Z,52.96
2019-05-22T09:26:28.680Z,52.05
2019-05-22T09:28:58.228Z,52.63
2019-05-22T09:31:27.672Z,51.54
2019-05-22T09:33:57.032Z,51.47
2019-05-22T09:36:27.353Z,50.87
2019-05-22T09:38:57.049Z,51.06
2019-05-22T09:41:26.547Z,50.04
2019-05-22T09:43:55.861Z,49.41
2019-05-22T09:46:25.826Z,48.47
2019-05-22T09:48:56.769Z,49.42
2019-05-22T09:51:26.209Z,49.30
2019-05-22T09:53:56.957Z,48.20
2019-05-22T09:56:28.830Z,47.65
2019-05-22T09:58:58.813Z,47.87
2019-05-22T10:01:28.469Z,48.77
2019-05-22T10:03:58.044Z,48.16
2019-05-22T10:06:27.421Z,48.99
2019-05-22T10:08:56.957Z,48.66
2019-05-22T10:11:26.331Z,47.97
2019-05-22T10:13:55.727Z,48.72
2019-05-22T10:16:25.331Z,47.24
2019-05-22T10:18:55.083Z,47.09
2019-05-22T10:21:24.575Z,45.61
2019-05-22T10:23:53.927Z,45.96
2019-05-22T10:26:23.705Z,46.29
2019-05-22T10:28:53.627Z,45.41
2019-05-22T10:33:52.218Z,45.72
2019-05-22T10:36:22.000Z,47.77
2019-05-22T10:38:53.754Z,46.02
2019-05-22T10:41:23.251Z,46.54
2019-05-22T10:43:52.701Z,45.08
2019-05-22T10:46:23.250Z,45.03
2019-05-22T10:48:53.451Z,46.28
2019-05-22T10:51:25.122Z,46.02
2019-05-22T10:53:54.466Z,46.52
2019-05-22T10:56:24.199Z,44.76
2019-05-22T10:58:54.301Z,44.98
2019-05-22T11:01:24.109Z,43.91
2019-05-22T11:03:53.531Z,42.82
2019-05-22T11:06:23.637Z,43.54
2019-05-22T11:08:55.950Z,44.74
2019-05-22T11:11:25.527Z,44.75
2019-05-22T11:14:01.299Z,45.83
2019-05-22T11:16:27.086Z,45.17
2019-05-22T11:18:57.139Z,44.06
2019-05-22T11:21:26.787Z,42.30
2019-05-22T11:23:56.250Z,42.13
2019-05-22T11:26:25.719Z,40.52
2019-05-22T11:28:56.009Z,40.26
2019-05-22T11:31:26.375Z,40.47
2019-05-22T11:33:55.722Z,40.83
2019-05-22T11:36:25.818Z,40.46
2019-05-22T11:38:55.727Z,40.56
2019-05-22T11:41:26.492Z,39.07
2019-05-22T11:43:55.926Z,38.09
2019-05-22T11:49:55.555Z,36.20
2019-05-22T11:52:27.732Z,35.85
2019-05-22T11:54:57.210Z,36.50
2019-05-22T11:57:28.791Z,37.21
2019-05-22T11:59:58.764Z,37.36
2019-05-22T12:02:28.683Z,37.62
2019-05-22T12:04:58.288Z,37.30
2019-05-22T12:07:27.642Z,37.42
2019-05-22T12:09:57.220Z,37.56
2019-05-22T12:12:26.673Z,37.45
2019-05-22T12:14:56.152Z,38.39
2019-05-22T12:17:37.330Z,38.52
2019-05-22T12:19:57.389Z,38.62
2019-05-22T12:22:27.137Z,37.45
2019-05-22T12:24:56.965Z,36.40
2019-05-22T12:27:26.455Z,36.21
2019-05-22T12:29:56.050Z,35.88
2019-05-22T12:32:25.670Z,36.31
2019-05-22T12:34:55.143Z,34.44
2019-05-22T12:37:26.987Z,34.80
2019-05-22T12:39:58.844Z,35.94
2019-05-22T12:45:57.255Z,37.05
2019-05-22T12:48:27.878Z,38.16
2019-05-22T12:50:58.122Z,37.54
2019-05-22T12:53:28.380Z,38.23
2019-05-22T12:55:59.738Z,37.34
2019-05-22T12:58:30.480Z,36.64
2019-05-22T13:01:00.067Z,35.18
2019-05-22T13:03:30.430Z,34.04
2019-05-22T13:06:00.170Z,33.72
2019-05-22T13:08:30.914Z,33.46
2019-05-22T13:11:00.471Z,32.66
2019-05-22T13:13:30.129Z,33.15
2019-05-22T13:16:00.511Z,32.38
2019-05-22T13:18:31.249Z,31.84
2019-05-22T13:21:03.233Z,32.96
2019-05-22T13:23:38.275Z,32.65
2019-05-22T13:26:09.445Z,32.11
2019-05-22T13:28:42.078Z,31.90
2019-05-22T13:31:11.789Z,32.71
2019-05-22T13:33:43.221Z,31.33
2019-05-22T13:36:14.385Z,32.34
2019-05-22T13:38:44.070Z,32.70
2019-05-22T13:41:17.440Z,31.84
2019-05-22T13:43:48.158Z,31.60
2019-05-22T13:46:17.835Z,32.48
2019-05-22T13:48:49.580Z,33.68
2019-05-22T13:51:20.230Z,33.73
2019-05-22T13:53:49.803Z,32.40
2019-05-22T13:56:19.736Z,32.98
2019-05-22T13:58:49.397Z,33.05
2019-05-22T14:01:20.553Z,32.88
2019-05-22T14:03:50.195Z,33.17
2019-05-22T14:06:20.316Z,32.16
2019-05-22T14:08:49.977Z,31.12
2019-05-22T14:11:19.347Z,30.92
2019-05-22T14:13:49.514Z,30.43
2019-05-22T14:16:19.813Z,31.46
2019-05-22T14:18:49.153Z,31.94
2019-05-22T14:21:18.684Z,31.54
2019-05-22T14:23:48.030Z,31.22
2019-05-22T14:26:17.594Z,30.70
2019-05-22T14:28:48.039Z,30.88
2019-05-22T14:31:18.114Z,30.31
2019-05-22T14:33:47.685Z,30.56
2019-05-22T14:36:17.345Z,29.85
2019-05-22T14:38:46.869Z,29.87
2019-05-22T14:41:17.301Z,30.78
2019-05-22T14:43:46.664Z,30.43
2019-05-22T14:46:16.042Z,30.18
2019-05-22T14:48:45.404Z,30.80
2019-05-22T14:51:16.548Z,30.71
2019-05-22T14:53:47.687Z,31.21
2019-05-22T14:56:17.881Z,31.36
2019-05-22T14:58:48.053Z,31.39
2019-05-22T15:01:18.134Z,31.02
2019-05-22T15:03:47.477Z,31.05
2019-05-22T15:06:17.667Z,30.53
2019-05-22T15:08:47.182Z,30.03
2019-05-22T15:11:17.905Z,30.33
2019-05-22T15:13:47.794Z,30.11
2019-05-22T15:16:17.586Z,30.39
2019-05-22T15:18:47.118Z,31.00
2019-05-22T15:21:18.382Z,31.47
2019-05-22T15:23:48.915Z,32.32
2019-05-22T15:26:18.606Z,33.03
2019-05-22T15:28:47.998Z,32.76
2019-05-22T15:31:17.875Z,33.15
2019-05-22T15:33:47.335Z,34.11
2019-05-22T15:36:19.370Z,34.98
2019-05-22T15:38:49.877Z,35.71
2019-05-22T15:41:20.636Z,36.19
2019-05-22T15:43:53.499Z,36.82
2019-05-22T15:46:25.505Z,36.49
2019-05-22T15:48:56.154Z,36.67
2019-05-22T15:51:28.614Z,36.38
2019-05-22T15:54:01.733Z,35.22
2019-05-22T15:56:35.284Z,34.79
2019-05-22T15:59:07.414Z,35.37
2019-05-22T16:01:38.291Z,35.75
2019-05-22T16:04:11.028Z,35.69
2019-05-22T16:06:41.076Z,36.61
2019-05-22T16:09:15.347Z,36.95
2019-05-22T16:11:46.967Z,37.44
2019-05-22T16:14:17.391Z,38.11
2019-05-22T16:16:50.430Z,37.70
2019-05-22T16:19:21.909Z,39.49
2019-05-22T16:21:54.236Z,43.12
2019-05-22T16:24:23.732Z,56.86
2019-05-22T16:26:53.623Z,62.97
2019-05-22T16:29:24.553Z,64.68
2019-05-22T16:31:57.098Z,72.82
2019-05-22T16:34:28.519Z,76.67
2019-05-22T16:36:58.369Z,75.13
2019-05-22T16:39:28.236Z,74.71
2019-05-22T16:41:58.284Z,76.25
2019-05-22T16:44:28.892Z,74.38
2019-05-22T16:46:58.873Z,71.04
2019-05-22T16:49:28.704Z,67.40
2019-05-22T16:52:02.343Z,70.94
2019-05-22T16:54:33.460Z,71.30
2019-05-22T16:57:03.955Z,73.47
2019-05-22T16:59:37.251Z,71.06
2019-05-22T17:02:07.644Z,72.24
2019-05-22T17:04:37.188Z,74.00
2019-05-22T17:07:06.855Z,73.25
2019-05-22T17:09:37.731Z,74.81
2019-05-22T17:12:09.846Z,74.64
2019-05-22T17:14:39.206Z,74.64
2019-05-22T17:17:09.821Z,71.43
2019-05-22T17:19:39.780Z,72.28
2019-05-22T17:22:09.561Z,72.06
2019-05-22T17:24:39.717Z,74.98
2019-05-22T17:27:10.462Z,72.83
2019-05-22T17:29:39.993Z,71.04
2019-05-22T17:32:13.129Z,68.18
2019-05-22T17:34:43.194Z,69.54
2019-05-22T17:37:15.885Z,70.19
2019-05-22T17:39:48.573Z,71.18
2019-05-22T17:42:23.462Z,72.30
2019-05-22T17:44:54.067Z,70.33
2019-05-22T17:47:26.305Z,70.82
2019-05-22T17:49:56.948Z,68.87
2019-05-22T17:52:27.816Z,67.96
2019-05-22T17:54:57.662Z,69.02
2019-05-22T17:57:28.182Z,70.62
2019-05-22T17:59:57.951Z,68.91
2019-05-22T18:02:32.032Z,73.96
2019-05-22T18:05:01.939Z,78.60
2019-05-22T18:07:32.529Z,82.08
2019-05-22T18:10:02.671Z,74.90
2019-05-22T18:12:32.361Z,73.55
2019-05-22T18:15:02.359Z,73.16
2019-05-22T18:17:31.902Z,72.91
2019-05-22T18:20:01.676Z,71.87
2019-05-22T18:22:31.247Z,72.57
2019-05-22T18:25:01.411Z,76.56
2019-05-22T18:27:31.787Z,76.82
2019-05-22T18:30:01.463Z,75.35
2019-05-22T18:32:32.477Z,75.05
2019-05-22T18:35:04.346Z,71.33
2019-05-22T18:37:36.030Z,70.42
2019-05-22T18:40:06.041Z,70.06
2019-05-22T18:42:35.762Z,69.53
2019-05-22T18:45:05.376Z,69.55
2019-05-22T18:47:34.925Z,70.23
2019-05-22T18:50:04.646Z,70.64
2019-05-22T18:52:41.061Z,72.91
2019-05-22T18:55:05.683Z,74.33
2019-05-22T18:57:36.060Z,75.61
2019-05-22T19:00:06.261Z,76.46
2019-05-22T19:02:36.186Z,75.55
2019-05-22T19:05:05.885Z,68.33
2019-05-22T19:07:36.089Z,70.97
2019-05-22T19:10:05.776Z,71.75
2019-05-22T19:12:37.560Z,72.54
2019-05-22T19:15:06.996Z,80.97
2019-05-22T19:17:36.515Z,83.87
2019-05-22T19:20:09.700Z,84.88
2019-05-22T19:22:39.804Z,85.36
2019-05-22T19:25:09.714Z,81.65
2019-05-22T19:27:39.312Z,85.24
2019-05-22T19:30:11.878Z,86.80
2019-05-22T19:32:41.332Z,87.30
2019-05-22T19:35:11.109Z,84.56
2019-05-22T19:37:47.106Z,88.03
2019-05-22T19:40:17.687Z,90.49
2019-05-22T19:42:47.595Z,90.58
2019-05-22T19:45:17.867Z,94.30
2019-05-22T19:47:54.526Z,93.05
2019-05-22T19:50:25.420Z,92.04
2019-05-22T19:53:15.706Z,90.08
2019-05-22T19:55:39.973Z,93.55
2019-05-22T19:58:10.712Z,96.44
2019-05-22T20:00:40.717Z,96.87
2019-05-22T20:03:10.491Z,95.50
2019-05-22T20:05:40.100Z,95.97
2019-05-22T20:08:10.305Z,95.59
2019-05-22T20:10:40.080Z,94.80
2019-05-22T20:13:12.211Z,94.58
2019-05-22T20:15:42.504Z,93.82
2019-05-22T20:18:16.602Z,95.17
2019-05-22T20:20:47.041Z,95.82
2019-05-22T20:23:17.579Z,96.53
2019-05-22T20:25:46.996Z,96.80
2019-05-22T20:28:16.848Z,96.27
2019-05-22T20:30:46.769Z,95.62
2019-05-22T20:33:16.349Z,95.67
2019-05-22T20:35:45.980Z,95.96
2019-05-22T20:38:16.285Z,95.75
2019-05-22T20:40:46.187Z,95.30
2019-05-22T20:43:16.589Z,95.59
2019-05-22T20:45:46.435Z,96.30
2019-05-22T20:48:24.682Z,96.39
2019-05-22T20:50:56.117Z,96.07
2019-05-22T20:53:27.398Z,95.83
2019-05-22T20:55:57.011Z,96.00
2019-05-22T20:58:28.620Z,95.50
2019-05-22T21:00:58.303Z,95.80
2019-05-22T21:03:28.095Z,95.22
2019-05-22T21:05:58.554Z,95.12
2019-05-22T21:08:30.881Z,95.34
2019-05-22T21:11:03.094Z,94.97
2019-05-22T21:13:32.716Z,94.68
2019-05-22T21:16:03.816Z,94.38
2019-05-22T21:18:41.261Z,95.38
2019-05-22T21:21:12.434Z,95.76
2019-05-22T21:23:42.683Z,94.80
2019-05-22T21:26:12.700Z,94.50
2019-05-22T21:28:43.169Z,96.21
2019-05-22T21:31:20.256Z,91.05
2019-05-22T21:33:50.299Z,91.05
2019-05-22T21:36:21.017Z,88.88
2019-05-22T21:38:51.527Z,88.24
2019-05-22T21:41:23.169Z,87.81
2019-05-22T21:43:54.219Z,90.26
2019-05-22T21:46:23.884Z,94.71
2019-05-22T21:48:55.995Z,95.41
2019-05-22T21:51:25.472Z,95.46
2019-05-22T21:53:55.751Z,95.29
2019-05-22T21:56:26.078Z,95.35
2019-05-22T21:58:55.931Z,94.39
2019-05-22T22:01:31.175Z,93.64
2019-05-22T22:04:11.809Z,92.68
2019-05-22T22:06:42.134Z,93.46
2019-05-22T22:09:12.096Z,93.89
2019-05-22T22:11:41.622Z,94.52
2019-05-22T22:14:11.538Z,95.02
2019-05-22T22:16:41.241Z,94.40
2019-05-22T22:19:11.720Z,94.36
2019-05-22T22:21:41.702Z,93.36
2019-05-22T22:24:11.792Z,93.62
2019-05-22T22:26:41.399Z,93.51
2019-05-22T22:29:10.819Z,94.83
2019-05-22T22:31:41.063Z,95.07
2019-05-22T22:34:22.201Z,94.89
2019-05-22T22:36:51.709Z,93.93
2019-05-22T22:39:23.374Z,93.54
2019-05-22T22:41:53.511Z,95.53
2019-05-22T22:44:23.223Z,95.34
2019-05-22T22:47:01.363Z,94.39
2019-05-22T22:49:30.758Z,95.00
2019-05-22T22:52:01.111Z,92.01
2019-05-22T22:54:31.773Z,92.06
2019-05-22T22:57:02.415Z,91.90
2019-05-22T22:59:32.057Z,92.98
2019-05-22T23:02:04.352Z,92.92
2019-05-22T23:04:34.394Z,93.61
2019-05-22T23:07:07.948Z,92.93
2019-05-22T23:09:39.306Z,93.14
2019-05-22T23:12:09.877Z,92.15
2019-05-22T23:14:42.559Z,91.82
2019-05-22T23:17:12.924Z,91.45
2019-05-22T23:19:44.515Z,91.52
2019-05-22T23:22:28.692Z,91.65
2019-05-22T23:24:59.562Z,92.46
2019-05-22T23:27:31.621Z,92.27
2019-05-22T23:30:01.181Z,92.56
2019-05-22T23:32:31.062Z,92.83
2019-05-22T23:35:01.314Z,91.98
2019-05-22T23:37:31.675Z,91.50
2019-05-22T23:40:01.653Z,91.59
2019-05-22T23:42:35.135Z,90.76
2019-05-22T23:45:08.155Z,90.08
2019-05-22T23:47:52.462Z,90.28
2019-05-22T23:50:23.229Z,90.36
2019-05-22T23:52:52.600Z,90.40
2019-05-22T23:55:23.557Z,89.87
2019-05-22T23:57:53.373Z,89.76
